sensor_id;sensor_type;location;lat;lon;timestamp;temperature;humidity
24645;DHT22;12780;45.502;9.146;2022-08-21T00:00:27;25.30;99.90
24645;DHT22;12780;45.502;9.146;2022-08-21T00:02:57;25.20;99.90
24645;DHT22;12780;45.502;9.146;2022-08-21T00:05:24;25.20;99.90
24645;DHT22;12780;45.502;9.146;2022-08-21T00:07:51;25.20;99.90
24645;DHT22;12780;45.502;9.146;2022-08-21T00:10:18;25.20;99.90
24645;DHT22;12780;45.502;9.146;2022-08-21T00:12:44;25.20;99.90
24645;DHT22;12780;45.502;9.146;2022-08-21T00:15:21;25.20;99.90
24645;DHT22;12780;45.502;9.146;2022-08-21T00:17:46;25.10;99.90
24645;DHT22;12780;45.502;9.146;2022-08-21T00:20:17;25.10;99.90
24645;DHT22;12780;45.502;9.146;2022-08-21T00:22:43;25.10;99.90
24645;DHT22;12780;45.502;9.146;2022-08-21T00:25:09;25.00;99.90
24645;DHT22;12780;45.502;9.146;2022-08-21T00:27:36;25.00;99.90
24645;DHT22;12780;45.502;9.146;2022-08-21T00:30:04;25.00;99.90
24645;DHT22;12780;45.502;9.146;2022-08-21T00:32:30;25.00;99.90
24645;DHT22;12780;45.502;9.146;2022-08-21T00:34:55;24.90;99.90
24645;DHT22;12780;45.502;9.146;2022-08-21T00:37:21;24.90;99.90
24645;DHT22;12780;45.502;9.146;2022-08-21T00:39:47;24.90;99.90
24645;DHT22;12780;45.502;9.146;2022-08-21T00:42:13;24.90;99.90
24645;DHT22;12780;45.502;9.146;2022-08-21T00:44:42;24.80;99.90
24645;DHT22;12780;45.502;9.146;2022-08-21T00:47:08;24.80;99.90
24645;DHT22;12780;45.502;9.146;2022-08-21T00:49:34;24.80;99.90
24645;DHT22;12780;45.502;9.146;2022-08-21T00:52:01;24.80;99.90
24645;DHT22;12780;45.502;9.146;2022-08-21T00:54:30;24.80;99.90
24645;DHT22;12780;45.502;9.146;2022-08-21T00:57:00;24.80;99.90
24645;DHT22;12780;45.502;9.146;2022-08-21T00:59:28;24.70;99.90
24645;DHT22;12780;45.502;9.146;2022-08-21T01:01:56;24.70;99.90
24645;DHT22;12780;45.502;9.146;2022-08-21T01:04:22;24.70;99.90
24645;DHT22;12780;45.502;9.146;2022-08-21T01:06:48;24.70;99.90
24645;DHT22;12780;45.502;9.146;2022-08-21T01:09:14;24.70;99.90
24645;DHT22;12780;45.502;9.146;2022-08-21T01:11:41;24.70;99.90
24645;DHT22;12780;45.502;9.146;2022-08-21T01:14:08;24.60;99.90
24645;DHT22;12780;45.502;9.146;2022-08-21T01:16:39;24.60;99.90
24645;DHT22;12780;45.502;9.146;2022-08-21T01:19:07;24.60;99.90
24645;DHT22;12780;45.502;9.146;2022-08-21T01:21:34;24.60;99.90
24645;DHT22;12780;45.502;9.146;2022-08-21T01:24:00;24.60;99.90
24645;DHT22;12780;45.502;9.146;2022-08-21T01:26:30;24.50;99.90
24645;DHT22;12780;45.502;9.146;2022-08-21T01:31:46;24.40;99.90
24645;DHT22;12780;45.502;9.146;2022-08-21T01:34:12;24.40;99.90
24645;DHT22;12780;45.502;9.146;2022-08-21T01:36:38;24.40;99.90
24645;DHT22;12780;45.502;9.146;2022-08-21T01:39:05;24.30;99.90
24645;DHT22;12780;45.502;9.146;2022-08-21T01:41:31;24.30;99.90
24645;DHT22;12780;45.502;9.146;2022-08-21T01:43:56;24.30;99.90
24645;DHT22;12780;45.502;9.146;2022-08-21T01:46:22;24.30;99.90
24645;DHT22;12780;45.502;9.146;2022-08-21T01:48:48;24.30;99.90
24645;DHT22;12780;45.502;9.146;2022-08-21T01:51:14;24.30;99.90
24645;DHT22;12780;45.502;9.146;2022-08-21T01:53:40;24.30;99.90
24645;DHT22;12780;45.502;9.146;2022-08-21T01:56:09;24.30;99.90
24645;DHT22;12780;45.502;9.146;2022-08-21T01:58:35;24.30;99.90
24645;DHT22;12780;45.502;9.146;2022-08-21T02:01:02;24.30;99.90
24645;DHT22;12780;45.502;9.146;2022-08-21T02:03:28;24.30;99.90
24645;DHT22;12780;45.502;9.146;2022-08-21T02:05:54;24.30;99.90
24645;DHT22;12780;45.502;9.146;2022-08-21T02:08:20;24.30;99.90
24645;DHT22;12780;45.502;9.146;2022-08-21T02:10:49;24.30;99.90
24645;DHT22;12780;45.502;9.146;2022-08-21T02:13:15;24.30;99.90
24645;DHT22;12780;45.502;9.146;2022-08-21T02:15:41;24.30;99.90
24645;DHT22;12780;45.502;9.146;2022-08-21T02:18:07;24.30;99.90
24645;DHT22;12780;45.502;9.146;2022-08-21T02:20:37;24.30;99.90
24645;DHT22;12780;45.502;9.146;2022-08-21T02:23:06;24.30;99.90
24645;DHT22;12780;45.502;9.146;2022-08-21T02:25:32;24.30;99.90
24645;DHT22;12780;45.502;9.146;2022-08-21T02:27:59;24.30;99.90
24645;DHT22;12780;45.502;9.146;2022-08-21T02:30:28;24.30;99.90
24645;DHT22;12780;45.502;9.146;2022-08-21T02:32:54;24.30;99.90
24645;DHT22;12780;45.502;9.146;2022-08-21T02:35:20;24.30;99.90
24645;DHT22;12780;45.502;9.146;2022-08-21T02:37:53;24.30;99.90
24645;DHT22;12780;45.502;9.146;2022-08-21T02:40:22;24.30;99.90
24645;DHT22;12780;45.502;9.146;2022-08-21T02:42:48;24.20;99.90
24645;DHT22;12780;45.502;9.146;2022-08-21T02:45:15;24.20;99.90
24645;DHT22;12780;45.502;9.146;2022-08-21T02:47:52;24.20;99.90
24645;DHT22;12780;45.502;9.146;2022-08-21T02:50:21;24.20;99.90
24645;DHT22;12780;45.502;9.146;2022-08-21T02:52:47;24.20;99.90
24645;DHT22;12780;45.502;9.146;2022-08-21T02:55:13;24.20;99.90
24645;DHT22;12780;45.502;9.146;2022-08-21T02:57:39;24.20;99.90
24645;DHT22;12780;45.502;9.146;2022-08-21T03:00:05;24.10;99.90
24645;DHT22;12780;45.502;9.146;2022-08-21T03:02:31;24.10;99.90
24645;DHT22;12780;45.502;9.146;2022-08-21T03:04:56;24.10;99.90
24645;DHT22;12780;45.502;9.146;2022-08-21T03:07:22;24.10;99.90
24645;DHT22;12780;45.502;9.146;2022-08-21T03:09:48;24.00;99.90
24645;DHT22;12780;45.502;9.146;2022-08-21T03:12:13;24.00;99.90
24645;DHT22;12780;45.502;9.146;2022-08-21T03:14:39;24.00;99.90
24645;DHT22;12780;45.502;9.146;2022-08-21T03:17:05;24.00;99.90
24645;DHT22;12780;45.502;9.146;2022-08-21T03:19:30;24.00;99.90
24645;DHT22;12780;45.502;9.146;2022-08-21T03:21:56;23.90;99.90
24645;DHT22;12780;45.502;9.146;2022-08-21T03:24:21;23.90;99.90
24645;DHT22;12780;45.502;9.146;2022-08-21T03:26:47;23.80;99.90
24645;DHT22;12780;45.502;9.146;2022-08-21T03:29:13;23.80;99.90
24645;DHT22;12780;45.502;9.146;2022-08-21T03:31:39;23.80;99.90
24645;DHT22;12780;45.502;9.146;2022-08-21T03:34:05;23.80;99.90
24645;DHT22;12780;45.502;9.146;2022-08-21T03:36:30;23.80;99.90
24645;DHT22;12780;45.502;9.146;2022-08-21T03:38:56;23.70;99.90
24645;DHT22;12780;45.502;9.146;2022-08-21T03:41:21;23.70;99.90
24645;DHT22;12780;45.502;9.146;2022-08-21T03:43:47;23.70;99.90
24645;DHT22;12780;45.502;9.146;2022-08-21T03:46:13;23.70;99.90
24645;DHT22;12780;45.502;9.146;2022-08-21T03:48:39;23.70;99.90
24645;DHT22;12780;45.502;9.146;2022-08-21T03:51:06;23.70;99.90
24645;DHT22;12780;45.502;9.146;2022-08-21T03:53:32;23.60;99.90
24645;DHT22;12780;45.502;9.146;2022-08-21T03:55:58;23.60;99.90
24645;DHT22;12780;45.502;9.146;2022-08-21T03:58:26;23.60;99.90
24645;DHT22;12780;45.502;9.146;2022-08-21T04:00:53;23.60;99.90
24645;DHT22;12780;45.502;9.146;2022-08-21T04:03:19;23.60;99.90
24645;DHT22;12780;45.502;9.146;2022-08-21T04:05:45;23.60;99.90
24645;DHT22;12780;45.502;9.146;2022-08-21T04:08:12;23.60;99.90
24645;DHT22;12780;45.502;9.146;2022-08-21T04:10:39;23.50;99.90
24645;DHT22;12780;45.502;9.146;2022-08-21T04:13:06;23.50;99.90
24645;DHT22;12780;45.502;9.146;2022-08-21T04:15:33;23.40;99.90
24645;DHT22;12780;45.502;9.146;2022-08-21T04:17:59;23.50;99.90
24645;DHT22;12780;45.502;9.146;2022-08-21T04:20:25;23.40;99.90
24645;DHT22;12780;45.502;9.146;2022-08-21T04:22:51;23.50;99.90
24645;DHT22;12780;45.502;9.146;2022-08-21T04:25:20;23.40;99.90
24645;DHT22;12780;45.502;9.146;2022-08-21T04:27:46;23.40;99.90
24645;DHT22;12780;45.502;9.146;2022-08-21T04:30:13;23.40;99.90
24645;DHT22;12780;45.502;9.146;2022-08-21T04:32:42;23.40;99.90
24645;DHT22;12780;45.502;9.146;2022-08-21T04:35:11;23.40;99.90
24645;DHT22;12780;45.502;9.146;2022-08-21T04:37:37;23.40;99.90
24645;DHT22;12780;45.502;9.146;2022-08-21T04:40:04;23.30;99.90
24645;DHT22;12780;45.502;9.146;2022-08-21T04:42:30;23.30;99.90
24645;DHT22;12780;45.502;9.146;2022-08-21T04:44:56;23.30;99.90
24645;DHT22;12780;45.502;9.146;2022-08-21T04:47:23;23.30;99.90
24645;DHT22;12780;45.502;9.146;2022-08-21T04:49:49;23.30;99.90
24645;DHT22;12780;45.502;9.146;2022-08-21T04:52:19;23.30;99.90
24645;DHT22;12780;45.502;9.146;2022-08-21T04:54:45;23.30;99.90
24645;DHT22;12780;45.502;9.146;2022-08-21T04:57:13;23.30;99.90
24645;DHT22;12780;45.502;9.146;2022-08-21T04:59:47;23.30;99.90
24645;DHT22;12780;45.502;9.146;2022-08-21T05:02:13;23.30;99.90
24645;DHT22;12780;45.502;9.146;2022-08-21T05:04:43;23.30;99.90
24645;DHT22;12780;45.502;9.146;2022-08-21T05:07:14;23.30;99.90
24645;DHT22;12780;45.502;9.146;2022-08-21T05:09:41;23.30;99.90
24645;DHT22;12780;45.502;9.146;2022-08-21T05:12:07;23.40;99.90
24645;DHT22;12780;45.502;9.146;2022-08-21T05:14:32;23.40;99.90
24645;DHT22;12780;45.502;9.146;2022-08-21T05:16:58;23.40;99.90
24645;DHT22;12780;45.502;9.146;2022-08-21T05:19:24;23.40;99.90
24645;DHT22;12780;45.502;9.146;2022-08-21T05:21:51;23.40;99.90
24645;DHT22;12780;45.502;9.146;2022-08-21T05:24:16;23.40;99.90
24645;DHT22;12780;45.502;9.146;2022-08-21T05:26:43;23.40;99.90
24645;DHT22;12780;45.502;9.146;2022-08-21T05:29:10;23.40;99.90
24645;DHT22;12780;45.502;9.146;2022-08-21T05:31:36;23.50;99.90
24645;DHT22;12780;45.502;9.146;2022-08-21T05:34:02;23.50;99.90
24645;DHT22;12780;45.502;9.146;2022-08-21T05:36:28;23.50;99.90
24645;DHT22;12780;45.502;9.146;2022-08-21T05:38:53;23.50;99.90
24645;DHT22;12780;45.502;9.146;2022-08-21T05:41:19;23.50;99.90
24645;DHT22;12780;45.502;9.146;2022-08-21T05:43:45;23.40;99.90
24645;DHT22;12780;45.502;9.146;2022-08-21T05:46:11;23.40;99.90
24645;DHT22;12780;45.502;9.146;2022-08-21T05:48:37;23.50;99.90
24645;DHT22;12780;45.502;9.146;2022-08-21T05:51:08;23.60;99.90
24645;DHT22;12780;45.502;9.146;2022-08-21T05:53:34;23.60;99.90
24645;DHT22;12780;45.502;9.146;2022-08-21T05:56:00;23.60;99.90
24645;DHT22;12780;45.502;9.146;2022-08-21T05:58:29;23.60;99.90
24645;DHT22;12780;45.502;9.146;2022-08-21T06:00:54;23.60;99.90
24645;DHT22;12780;45.502;9.146;2022-08-21T06:03:25;23.70;99.90
24645;DHT22;12780;45.502;9.146;2022-08-21T06:05:52;23.80;99.90
24645;DHT22;12780;45.502;9.146;2022-08-21T06:08:19;23.80;99.90
24645;DHT22;12780;45.502;9.146;2022-08-21T06:10:46;23.90;99.90
24645;DHT22;12780;45.502;9.146;2022-08-21T06:13:13;23.90;99.90
24645;DHT22;12780;45.502;9.146;2022-08-21T06:15:40;24.00;99.90
24645;DHT22;12780;45.502;9.146;2022-08-21T06:18:06;24.00;99.90
24645;DHT22;12780;45.502;9.146;2022-08-21T06:20:31;24.10;99.90
24645;DHT22;12780;45.502;9.146;2022-08-21T06:22:58;24.00;99.90
24645;DHT22;12780;45.502;9.146;2022-08-21T06:25:24;24.10;99.90
24645;DHT22;12780;45.502;9.146;2022-08-21T06:27:50;24.20;99.90
24645;DHT22;12780;45.502;9.146;2022-08-21T06:30:16;24.30;99.90
24645;DHT22;12780;45.502;9.146;2022-08-21T06:32:42;24.30;99.90
24645;DHT22;12780;45.502;9.146;2022-08-21T06:35:08;24.40;99.90
24645;DHT22;12780;45.502;9.146;2022-08-21T06:37:34;24.50;99.90
24645;DHT22;12780;45.502;9.146;2022-08-21T06:40:00;24.60;99.90
24645;DHT22;12780;45.502;9.146;2022-08-21T06:42:26;24.60;99.90
24645;DHT22;12780;45.502;9.146;2022-08-21T06:44:53;24.70;99.90
24645;DHT22;12780;45.502;9.146;2022-08-21T06:47:18;24.80;99.90
24645;DHT22;12780;45.502;9.146;2022-08-21T06:49:44;24.80;99.90
24645;DHT22;12780;45.502;9.146;2022-08-21T06:52:11;24.90;99.90
24645;DHT22;12780;45.502;9.146;2022-08-21T06:54:37;25.00;99.90
24645;DHT22;12780;45.502;9.146;2022-08-21T06:57:03;25.10;99.90
24645;DHT22;12780;45.502;9.146;2022-08-21T06:59:30;25.10;99.90
24645;DHT22;12780;45.502;9.146;2022-08-21T07:01:56;25.20;99.90
24645;DHT22;12780;45.502;9.146;2022-08-21T07:04:21;25.30;99.90
24645;DHT22;12780;45.502;9.146;2022-08-21T07:06:47;25.40;99.90
24645;DHT22;12780;45.502;9.146;2022-08-21T07:09:12;25.50;99.90
24645;DHT22;12780;45.502;9.146;2022-08-21T07:11:38;25.50;99.90
24645;DHT22;12780;45.502;9.146;2022-08-21T07:14:04;25.60;99.90
24645;DHT22;12780;45.502;9.146;2022-08-21T07:16:30;25.60;99.90
24645;DHT22;12780;45.502;9.146;2022-08-21T07:18:56;25.70;99.90
24645;DHT22;12780;45.502;9.146;2022-08-21T07:21:21;25.80;99.90
24645;DHT22;12780;45.502;9.146;2022-08-21T07:23:49;25.90;99.90
24645;DHT22;12780;45.502;9.146;2022-08-21T07:26:17;26.00;99.90
24645;DHT22;12780;45.502;9.146;2022-08-21T07:28:43;26.10;99.90
24645;DHT22;12780;45.502;9.146;2022-08-21T07:31:10;26.10;99.90
24645;DHT22;12780;45.502;9.146;2022-08-21T07:33:39;26.20;99.90
24645;DHT22;12780;45.502;9.146;2022-08-21T07:36:05;26.30;99.90
24645;DHT22;12780;45.502;9.146;2022-08-21T07:38:31;26.40;99.90
24645;DHT22;12780;45.502;9.146;2022-08-21T07:40:57;26.50;99.90
24645;DHT22;12780;45.502;9.146;2022-08-21T07:43:24;26.60;99.90
24645;DHT22;12780;45.502;9.146;2022-08-21T07:45:51;26.70;99.90
24645;DHT22;12780;45.502;9.146;2022-08-21T07:48:19;26.80;99.90
24645;DHT22;12780;45.502;9.146;2022-08-21T07:50:45;26.90;99.90
24645;DHT22;12780;45.502;9.146;2022-08-21T07:53:10;26.90;99.90
24645;DHT22;12780;45.502;9.146;2022-08-21T07:55:36;27.00;99.90
24645;DHT22;12780;45.502;9.146;2022-08-21T07:58:02;27.00;99.90
24645;DHT22;12780;45.502;9.146;2022-08-21T08:00:28;27.00;99.90
24645;DHT22;12780;45.502;9.146;2022-08-21T08:02:55;27.10;99.90
24645;DHT22;12780;45.502;9.146;2022-08-21T08:05:25;27.10;99.90
24645;DHT22;12780;45.502;9.146;2022-08-21T08:07:51;27.10;99.90
24645;DHT22;12780;45.502;9.146;2022-08-21T08:10:17;27.20;99.90
24645;DHT22;12780;45.502;9.146;2022-08-21T08:12:44;27.20;99.90
24645;DHT22;12780;45.502;9.146;2022-08-21T08:15:18;27.30;99.90
24645;DHT22;12780;45.502;9.146;2022-08-21T08:17:44;27.30;99.90
24645;DHT22;12780;45.502;9.146;2022-08-21T08:20:12;27.40;99.90
24645;DHT22;12780;45.502;9.146;2022-08-21T08:22:38;27.40;99.90
24645;DHT22;12780;45.502;9.146;2022-08-21T08:25:06;27.50;99.90
24645;DHT22;12780;45.502;9.146;2022-08-21T08:27:31;27.50;99.90
24645;DHT22;12780;45.502;9.146;2022-08-21T08:29:57;27.60;99.90
24645;DHT22;12780;45.502;9.146;2022-08-21T08:32:23;27.60;99.90
24645;DHT22;12780;45.502;9.146;2022-08-21T08:34:49;27.60;99.90
24645;DHT22;12780;45.502;9.146;2022-08-21T08:37:18;27.60;99.90
24645;DHT22;12780;45.502;9.146;2022-08-21T08:39:44;27.60;99.90
24645;DHT22;12780;45.502;9.146;2022-08-21T08:42:16;27.60;99.90
24645;DHT22;12780;45.502;9.146;2022-08-21T08:44:45;27.70;99.90
24645;DHT22;12780;45.502;9.146;2022-08-21T08:47:15;27.70;99.90
24645;DHT22;12780;45.502;9.146;2022-08-21T08:49:53;27.80;99.90
24645;DHT22;12780;45.502;9.146;2022-08-21T08:52:21;27.80;99.90
24645;DHT22;12780;45.502;9.146;2022-08-21T08:54:55;27.90;99.90
24645;DHT22;12780;45.502;9.146;2022-08-21T08:57:24;27.90;99.90
24645;DHT22;12780;45.502;9.146;2022-08-21T08:59:52;28.00;99.90
24645;DHT22;12780;45.502;9.146;2022-08-21T09:02:20;28.00;99.90
24645;DHT22;12780;45.502;9.146;2022-08-21T09:04:49;28.00;99.90
24645;DHT22;12780;45.502;9.146;2022-08-21T09:07:40;28.10;99.90
24645;DHT22;12780;45.502;9.146;2022-08-21T09:10:21;28.10;99.90
24645;DHT22;12780;45.502;9.146;2022-08-21T09:13:21;28.00;99.90
24645;DHT22;12780;45.502;9.146;2022-08-21T09:16:16;28.00;99.90
24645;DHT22;12780;45.502;9.146;2022-08-21T09:24:34;28.20;99.90
24645;DHT22;12780;45.502;9.146;2022-08-21T09:27:03;28.20;99.90
24645;DHT22;12780;45.502;9.146;2022-08-21T09:29:34;28.20;99.90
24645;DHT22;12780;45.502;9.146;2022-08-21T09:32:00;28.20;99.90
24645;DHT22;12780;45.502;9.146;2022-08-21T09:34:28;28.30;99.90
24645;DHT22;12780;45.502;9.146;2022-08-21T09:36:55;28.30;99.90
24645;DHT22;12780;45.502;9.146;2022-08-21T09:39:37;28.40;99.90
24645;DHT22;12780;45.502;9.146;2022-08-21T09:42:05;28.40;99.90
24645;DHT22;12780;45.502;9.146;2022-08-21T09:44:35;28.50;99.90
24645;DHT22;12780;45.502;9.146;2022-08-21T09:47:04;28.50;99.90
24645;DHT22;12780;45.502;9.146;2022-08-21T09:49:33;28.50;99.90
24645;DHT22;12780;45.502;9.146;2022-08-21T09:52:00;28.60;99.90
24645;DHT22;12780;45.502;9.146;2022-08-21T09:54:39;28.60;99.90
24645;DHT22;12780;45.502;9.146;2022-08-21T09:59:53;28.60;99.90
24645;DHT22;12780;45.502;9.146;2022-08-21T10:02:27;28.60;99.90
24645;DHT22;12780;45.502;9.146;2022-08-21T10:05:00;28.50;99.90
24645;DHT22;12780;45.502;9.146;2022-08-21T10:07:29;28.60;99.90
24645;DHT22;12780;45.502;9.146;2022-08-21T10:10:05;28.60;99.90
24645;DHT22;12780;45.502;9.146;2022-08-21T10:15:22;28.60;99.90
24645;DHT22;12780;45.502;9.146;2022-08-21T10:18:04;28.60;99.90
24645;DHT22;12780;45.502;9.146;2022-08-21T10:31:59;28.50;99.90
24645;DHT22;12780;45.502;9.146;2022-08-21T10:47:51;28.90;99.90
24645;DHT22;12780;45.502;9.146;2022-08-21T10:50:42;28.90;99.90
24645;DHT22;12780;45.502;9.146;2022-08-21T10:56:19;29.00;99.90
24645;DHT22;12780;45.502;9.146;2022-08-21T10:59:22;29.20;99.90
24645;DHT22;12780;45.502;9.146;2022-08-21T11:01:54;29.30;99.90
24645;DHT22;12780;45.502;9.146;2022-08-21T11:04:28;29.40;99.90
24645;DHT22;12780;45.502;9.146;2022-08-21T11:07:28;29.50;99.90
24645;DHT22;12780;45.502;9.146;2022-08-21T11:09:58;29.70;99.90
24645;DHT22;12780;45.502;9.146;2022-08-21T11:12:35;29.80;99.90
24645;DHT22;12780;45.502;9.146;2022-08-21T11:17:52;30.00;99.90
24645;DHT22;12780;45.502;9.146;2022-08-21T11:20:38;29.90;99.90
24645;DHT22;12780;45.502;9.146;2022-08-21T11:23:31;29.90;99.90
24645;DHT22;12780;45.502;9.146;2022-08-21T11:26:02;30.10;99.90
24645;DHT22;12780;45.502;9.146;2022-08-21T11:28:46;30.20;99.90
24645;DHT22;12780;45.502;9.146;2022-08-21T11:31:21;30.30;99.90
24645;DHT22;12780;45.502;9.146;2022-08-21T11:42:36;30.80;99.90
24645;DHT22;12780;45.502;9.146;2022-08-21T11:45:26;30.80;99.90
24645;DHT22;12780;45.502;9.146;2022-08-21T11:50:53;30.90;99.90
24645;DHT22;12780;45.502;9.146;2022-08-21T11:56:22;31.10;99.90
24645;DHT22;12780;45.502;9.146;2022-08-21T11:58:53;31.20;99.90
24645;DHT22;12780;45.502;9.146;2022-08-21T12:01:34;31.30;99.90
24645;DHT22;12780;45.502;9.146;2022-08-21T12:04:05;31.40;99.90
24645;DHT22;12780;45.502;9.146;2022-08-21T12:06:39;31.60;99.90
24645;DHT22;12780;45.502;9.146;2022-08-21T12:09:25;31.60;99.90
24645;DHT22;12780;45.502;9.146;2022-08-21T12:12:22;31.70;99.90
24645;DHT22;12780;45.502;9.146;2022-08-21T12:14:50;31.80;99.90
24645;DHT22;12780;45.502;9.146;2022-08-21T12:17:26;32.00;99.90
24645;DHT22;12780;45.502;9.146;2022-08-21T12:20:14;32.10;99.90
24645;DHT22;12780;45.502;9.146;2022-08-21T12:22:41;32.20;99.90
24645;DHT22;12780;45.502;9.146;2022-08-21T12:25:18;32.20;99.90
24645;DHT22;12780;45.502;9.146;2022-08-21T12:27:52;32.30;99.90
24645;DHT22;12780;45.502;9.146;2022-08-21T12:32:58;32.30;99.90
24645;DHT22;12780;45.502;9.146;2022-08-21T12:35:36;32.40;99.90
24645;DHT22;12780;45.502;9.146;2022-08-21T12:40:46;32.40;99.90
24645;DHT22;12780;45.502;9.146;2022-08-21T12:43:20;32.20;99.90
24645;DHT22;12780;45.502;9.146;2022-08-21T12:45:50;32.10;99.90
24645;DHT22;12780;45.502;9.146;2022-08-21T12:48:50;32.10;99.90
24645;DHT22;12780;45.502;9.146;2022-08-21T12:51:18;32.10;99.90
24645;DHT22;12780;45.502;9.146;2022-08-21T12:53:49;32.10;99.90
24645;DHT22;12780;45.502;9.146;2022-08-21T12:56:20;31.90;99.90
24645;DHT22;12780;45.502;9.146;2022-08-21T12:58:48;31.80;99.90
24645;DHT22;12780;45.502;9.146;2022-08-21T13:01:31;31.70;99.90
24645;DHT22;12780;45.502;9.146;2022-08-21T13:04:03;31.60;99.90
24645;DHT22;12780;45.502;9.146;2022-08-21T13:06:36;31.60;99.90
24645;DHT22;12780;45.502;9.146;2022-08-21T13:09:06;31.60;99.90
24645;DHT22;12780;45.502;9.146;2022-08-21T13:11:33;31.60;99.90
24645;DHT22;12780;45.502;9.146;2022-08-21T13:14:00;31.60;99.90
24645;DHT22;12780;45.502;9.146;2022-08-21T13:16:28;31.60;99.90
24645;DHT22;12780;45.502;9.146;2022-08-21T13:19:00;31.60;99.90
24645;DHT22;12780;45.502;9.146;2022-08-21T13:21:38;31.50;99.90
24645;DHT22;12780;45.502;9.146;2022-08-21T13:24:18;31.50;99.90
24645;DHT22;12780;45.502;9.146;2022-08-21T13:26:45;31.50;99.90
24645;DHT22;12780;45.502;9.146;2022-08-21T13:29:13;31.50;99.90
24645;DHT22;12780;45.502;9.146;2022-08-21T13:31:41;31.50;99.90
24645;DHT22;12780;45.502;9.146;2022-08-21T13:34:09;31.50;99.90
24645;DHT22;12780;45.502;9.146;2022-08-21T13:36:39;31.50;99.90
24645;DHT22;12780;45.502;9.146;2022-08-21T13:39:09;31.50;99.90
24645;DHT22;12780;45.502;9.146;2022-08-21T13:41:39;31.50;99.90
24645;DHT22;12780;45.502;9.146;2022-08-21T13:44:18;31.50;99.90
24645;DHT22;12780;45.502;9.146;2022-08-21T13:46:44;31.50;99.90
24645;DHT22;12780;45.502;9.146;2022-08-21T13:49:14;31.40;99.90
24645;DHT22;12780;45.502;9.146;2022-08-21T13:51:40;31.40;99.90
24645;DHT22;12780;45.502;9.146;2022-08-21T13:54:34;31.40;99.90
24645;DHT22;12780;45.502;9.146;2022-08-21T13:57:00;31.40;99.90
24645;DHT22;12780;45.502;9.146;2022-08-21T13:59:32;31.40;99.90
24645;DHT22;12780;45.502;9.146;2022-08-21T14:02:16;31.30;99.90
24645;DHT22;12780;45.502;9.146;2022-08-21T14:04:55;31.30;99.90
24645;DHT22;12780;45.502;9.146;2022-08-21T14:07:29;31.30;99.90
24645;DHT22;12780;45.502;9.146;2022-08-21T14:10:05;31.40;99.90
24645;DHT22;12780;45.502;9.146;2022-08-21T14:12:47;31.40;99.90
24645;DHT22;12780;45.502;9.146;2022-08-21T14:15:17;31.40;99.90
24645;DHT22;12780;45.502;9.146;2022-08-21T14:17:43;31.40;99.90
24645;DHT22;12780;45.502;9.146;2022-08-21T14:20:27;31.40;99.90
24645;DHT22;12780;45.502;9.146;2022-08-21T14:22:54;31.40;99.90
24645;DHT22;12780;45.502;9.146;2022-08-21T14:30:40;31.40;99.90
24645;DHT22;12780;45.502;9.146;2022-08-21T14:33:11;31.40;99.90
24645;DHT22;12780;45.502;9.146;2022-08-21T14:35:37;31.40;99.90
24645;DHT22;12780;45.502;9.146;2022-08-21T14:38:15;31.40;99.90
24645;DHT22;12780;45.502;9.146;2022-08-21T14:40:43;31.40;99.90
24645;DHT22;12780;45.502;9.146;2022-08-21T14:43:09;31.40;99.90
24645;DHT22;12780;45.502;9.146;2022-08-21T14:45:35;31.30;99.90
24645;DHT22;12780;45.502;9.146;2022-08-21T14:48:02;31.30;99.90
24645;DHT22;12780;45.502;9.146;2022-08-21T14:50:28;31.30;99.90
24645;DHT22;12780;45.502;9.146;2022-08-21T14:52:54;31.20;99.90
24645;DHT22;12780;45.502;9.146;2022-08-21T14:55:20;31.30;99.90
24645;DHT22;12780;45.502;9.146;2022-08-21T14:57:47;31.30;99.90
24645;DHT22;12780;45.502;9.146;2022-08-21T15:00:16;31.30;99.90
24645;DHT22;12780;45.502;9.146;2022-08-21T15:02:43;31.40;99.90
24645;DHT22;12780;45.502;9.146;2022-08-21T15:05:09;31.30;99.90
24645;DHT22;12780;45.502;9.146;2022-08-21T15:07:35;31.30;99.90
24645;DHT22;12780;45.502;9.146;2022-08-21T15:10:01;31.20;99.90
24645;DHT22;12780;45.502;9.146;2022-08-21T15:12:27;31.20;99.90
24645;DHT22;12780;45.502;9.146;2022-08-21T15:14:53;31.20;99.90
24645;DHT22;12780;45.502;9.146;2022-08-21T15:17:19;31.20;99.90
24645;DHT22;12780;45.502;9.146;2022-08-21T15:19:45;31.20;99.90
24645;DHT22;12780;45.502;9.146;2022-08-21T15:22:10;31.20;99.90
24645;DHT22;12780;45.502;9.146;2022-08-21T15:24:36;31.20;99.90
24645;DHT22;12780;45.502;9.146;2022-08-21T15:27:03;31.20;99.90
24645;DHT22;12780;45.502;9.146;2022-08-21T15:29:31;31.10;99.90
24645;DHT22;12780;45.502;9.146;2022-08-21T15:32:14;31.10;99.90
24645;DHT22;12780;45.502;9.146;2022-08-21T15:34:39;31.10;99.90
24645;DHT22;12780;45.502;9.146;2022-08-21T15:37:05;31.10;99.90
24645;DHT22;12780;45.502;9.146;2022-08-21T15:39:33;31.10;99.90
24645;DHT22;12780;45.502;9.146;2022-08-21T15:41:59;31.10;99.90
24645;DHT22;12780;45.502;9.146;2022-08-21T15:44:26;31.00;99.90
24645;DHT22;12780;45.502;9.146;2022-08-21T15:46:52;31.10;99.90
24645;DHT22;12780;45.502;9.146;2022-08-21T15:49:18;31.10;99.90
24645;DHT22;12780;45.502;9.146;2022-08-21T15:51:44;31.10;99.90
24645;DHT22;12780;45.502;9.146;2022-08-21T15:54:10;31.10;99.90
24645;DHT22;12780;45.502;9.146;2022-08-21T15:56:37;31.10;99.90
24645;DHT22;12780;45.502;9.146;2022-08-21T15:59:09;31.10;99.90
24645;DHT22;12780;45.502;9.146;2022-08-21T16:01:38;31.10;99.90
24645;DHT22;12780;45.502;9.146;2022-08-21T16:04:05;31.00;99.90
24645;DHT22;12780;45.502;9.146;2022-08-21T16:06:31;31.00;99.90
24645;DHT22;12780;45.502;9.146;2022-08-21T16:08:58;31.00;99.90
24645;DHT22;12780;45.502;9.146;2022-08-21T16:11:23;31.00;99.90
24645;DHT22;12780;45.502;9.146;2022-08-21T16:13:50;30.90;99.90
24645;DHT22;12780;45.502;9.146;2022-08-21T16:16:20;31.00;99.90
24645;DHT22;12780;45.502;9.146;2022-08-21T16:18:47;30.90;99.90
24645;DHT22;12780;45.502;9.146;2022-08-21T16:21:14;30.90;99.90
24645;DHT22;12780;45.502;9.146;2022-08-21T16:23:39;30.90;99.90
24645;DHT22;12780;45.502;9.146;2022-08-21T16:26:06;30.90;99.90
24645;DHT22;12780;45.502;9.146;2022-08-21T16:28:34;30.90;99.90
24645;DHT22;12780;45.502;9.146;2022-08-21T16:31:01;30.90;99.90
24645;DHT22;12780;45.502;9.146;2022-08-21T16:33:33;30.90;99.90
24645;DHT22;12780;45.502;9.146;2022-08-21T16:35:59;30.90;99.90
24645;DHT22;12780;45.502;9.146;2022-08-21T16:38:26;30.90;99.90
24645;DHT22;12780;45.502;9.146;2022-08-21T16:40:53;30.80;99.90
24645;DHT22;12780;45.502;9.146;2022-08-21T16:43:21;30.80;99.90
24645;DHT22;12780;45.502;9.146;2022-08-21T16:45:48;30.80;99.90
24645;DHT22;12780;45.502;9.146;2022-08-21T16:48:13;30.70;99.90
24645;DHT22;12780;45.502;9.146;2022-08-21T16:50:39;30.70;99.90